sensor_id;sensor_type;location;lat;lon;timestamp;pressure;altitude;pressure_sealevel;temperature;humidity
36284;BME280;56085;48.910;9.478;2023-11-21T00:01:15;97580.84;;;13.49;53.40
36284;BME280;56085;48.910;9.478;2023-11-21T00:03:40;97576.88;;;13.47;53.46
36284;BME280;56085;48.910;9.478;2023-11-21T00:06:06;97574.50;;;13.52;53.46
36284;BME280;56085;48.910;9.478;2023-11-21T00:08:34;97568.13;;;13.44;53.90
36284;BME280;56085;48.910;9.478;2023-11-21T00:11:00;97568.94;;;13.41;54.12
36284;BME280;56085;48.910;9.478;2023-11-21T00:13:25;97578.06;;;13.35;54.11
36284;BME280;56085;48.910;9.478;2023-11-21T00:15:51;97574.09;;;13.54;54.16
36284;BME280;56085;48.910;9.478;2023-11-21T00:18:16;97573.28;;;13.39;54.43
36284;BME280;56085;48.910;9.478;2023-11-21T00:20:42;97572.50;;;13.38;54.70
36284;BME280;56085;48.910;9.478;2023-11-21T00:23:07;97566.91;;;12.99;55.31
36284;BME280;56085;48.910;9.478;2023-11-21T00:25:32;97570.88;;;13.30;55.36
36284;BME280;56085;48.910;9.478;2023-11-21T00:27:58;97568.09;;;13.30;55.01
36284;BME280;56085;48.910;9.478;2023-11-21T00:30:23;97568.53;;;13.50;54.52
36284;BME280;56085;48.910;9.478;2023-11-21T00:32:48;97560.19;;;13.32;54.67
36284;BME280;56085;48.910;9.478;2023-11-21T00:35:14;97557.44;;;13.39;54.71
36284;BME280;56085;48.910;9.478;2023-11-21T00:37:39;97564.19;;;13.42;54.39
36284;BME280;56085;48.910;9.478;2023-11-21T00:40:05;97565.34;;;13.23;54.90
36284;BME280;56085;48.910;9.478;2023-11-21T00:42:31;97579.59;;;13.28;54.69
36284;BME280;56085;48.910;9.478;2023-11-21T00:44:59;97553.47;;;13.26;55.16
36284;BME280;56085;48.910;9.478;2023-11-21T00:47:24;97558.19;;;13.25;54.79
36284;BME280;56085;48.910;9.478;2023-11-21T00:49:50;97560.97;;;13.18;55.03
36284;BME280;56085;48.910;9.478;2023-11-21T00:52:15;97557.41;;;13.28;54.90
36284;BME280;56085;48.910;9.478;2023-11-21T00:54:41;97560.97;;;13.15;55.26
36284;BME280;56085;48.910;9.478;2023-11-21T00:57:06;97562.97;;;13.14;55.37
36284;BME280;56085;48.910;9.478;2023-11-21T00:59:33;97562.97;;;13.07;55.88
36284;BME280;56085;48.910;9.478;2023-11-21T01:02:00;97562.56;;;13.16;55.02
36284;BME280;56085;48.910;9.478;2023-11-21T01:04:26;97553.41;;;12.93;56.23
36284;BME280;56085;48.910;9.478;2023-11-21T01:06:52;97556.97;;;12.83;56.59
36284;BME280;56085;48.910;9.478;2023-11-21T01:09:17;97560.97;;;13.18;55.92
36284;BME280;56085;48.910;9.478;2023-11-21T01:11:43;97558.59;;;13.09;56.29
36284;BME280;56085;48.910;9.478;2023-11-21T01:14:09;97555.84;;;13.38;55.52
36284;BME280;56085;48.910;9.478;2023-11-21T01:16:35;97557.00;;;13.34;55.36
36284;BME280;56085;48.910;9.478;2023-11-21T01:19:01;97552.66;;;13.22;56.02
36284;BME280;56085;48.910;9.478;2023-11-21T01:21:27;97555.03;;;13.27;55.75
36284;BME280;56085;48.910;9.478;2023-11-21T01:23:53;97545.53;;;13.32;55.29
36284;BME280;56085;48.910;9.478;2023-11-21T01:26:20;97548.69;;;13.37;55.77
36284;BME280;56085;48.910;9.478;2023-11-21T01:28:46;97549.50;;;13.05;55.65
36284;BME280;56085;48.910;9.478;2023-11-21T01:31:14;97551.84;;;13.21;55.51
36284;BME280;56085;48.910;9.478;2023-11-21T01:33:39;97547.53;;;13.42;55.03
36284;BME280;56085;48.910;9.478;2023-11-21T01:36:05;97552.25;;;13.49;55.25
36284;BME280;56085;48.910;9.478;2023-11-21T01:38:30;97553.84;;;13.24;55.66
36284;BME280;56085;48.910;9.478;2023-11-21T01:40:57;97562.97;;;13.25;55.88
36284;BME280;56085;48.910;9.478;2023-11-21T01:43:22;97553.03;;;13.02;56.23
36284;BME280;56085;48.910;9.478;2023-11-21T01:45:48;97558.19;;;13.25;56.04
36284;BME280;56085;48.910;9.478;2023-11-21T01:48:14;97554.25;;;13.37;55.38
36284;BME280;56085;48.910;9.478;2023-11-21T01:50:41;97558.19;;;13.58;54.92
36284;BME280;56085;48.910;9.478;2023-11-21T01:53:08;97561.41;;;13.38;55.54
36284;BME280;56085;48.910;9.478;2023-11-21T01:55:34;97557.41;;;13.36;55.36
36284;BME280;56085;48.910;9.478;2023-11-21T01:57:59;97561.00;;;13.40;55.81
36284;BME280;56085;48.910;9.478;2023-11-21T02:00:25;97567.34;;;13.33;55.75
36284;BME280;56085;48.910;9.478;2023-11-21T02:02:53;97568.16;;;13.41;55.63
36284;BME280;56085;48.910;9.478;2023-11-21T02:05:20;97573.69;;;13.55;54.94
36284;BME280;56085;48.910;9.478;2023-11-21T02:07:47;97567.72;;;13.39;55.99
36284;BME280;56085;48.910;9.478;2023-11-21T02:10:14;97575.28;;;13.49;55.56
36284;BME280;56085;48.910;9.478;2023-11-21T02:12:41;97570.53;;;13.50;55.63
36284;BME280;56085;48.910;9.478;2023-11-21T02:15:08;97569.72;;;13.20;56.72
36284;BME280;56085;48.910;9.478;2023-11-21T02:17:41;97562.56;;;13.12;56.92
36284;BME280;56085;48.910;9.478;2023-11-21T02:20:07;97562.56;;;13.16;57.01
36284;BME280;56085;48.910;9.478;2023-11-21T02:22:34;97555.03;;;13.23;56.75
36284;BME280;56085;48.910;9.478;2023-11-21T02:25:03;97555.84;;;13.27;56.82
36284;BME280;56085;48.910;9.478;2023-11-21T02:27:28;97553.47;;;13.26;56.97
36284;BME280;56085;48.910;9.478;2023-11-21T02:29:54;97557.44;;;13.14;57.08
36284;BME280;56085;48.910;9.478;2023-11-21T02:32:19;97551.06;;;13.24;56.84
36284;BME280;56085;48.910;9.478;2023-11-21T02:34:48;97553.03;;;13.24;56.59
36284;BME280;56085;48.910;9.478;2023-11-21T02:37:13;97543.13;;;13.44;56.13
36284;BME280;56085;48.910;9.478;2023-11-21T02:39:39;97547.88;;;13.08;57.00
36284;BME280;56085;48.910;9.478;2023-11-21T02:42:04;97547.91;;;13.04;57.51
36284;BME280;56085;48.910;9.478;2023-11-21T02:44:29;97539.97;;;13.32;56.53
36284;BME280;56085;48.910;9.478;2023-11-21T02:46:55;97537.19;;;13.32;56.41
36284;BME280;56085;48.910;9.478;2023-11-21T02:49:23;97542.72;;;13.28;56.58
36284;BME280;56085;48.910;9.478;2023-11-21T02:51:48;97545.09;;;13.30;56.40
36284;BME280;56085;48.910;9.478;2023-11-21T02:54:13;97544.75;;;13.49;55.77
36284;BME280;56085;48.910;9.478;2023-11-21T02:56:39;97544.34;;;13.40;55.66
36284;BME280;56085;48.910;9.478;2023-11-21T02:59:05;97547.50;;;13.24;56.77
36284;BME280;56085;48.910;9.478;2023-11-21T03:01:30;97549.88;;;13.54;56.02
36284;BME280;56085;48.910;9.478;2023-11-21T03:03:56;97549.91;;;13.36;56.30
36284;BME280;56085;48.910;9.478;2023-11-21T03:06:22;97549.50;;;13.38;56.44
36284;BME280;56085;48.910;9.478;2023-11-21T03:08:47;97543.94;;;13.49;56.03
36284;BME280;56085;48.910;9.478;2023-11-21T03:11:13;97553.84;;;13.32;56.41
36284;BME280;56085;48.910;9.478;2023-11-21T03:13:42;97552.25;;;13.59;56.09
36284;BME280;56085;48.910;9.478;2023-11-21T03:16:08;97553.06;;;13.46;56.09
36284;BME280;56085;48.910;9.478;2023-11-21T03:18:34;97547.91;;;13.33;56.46
36284;BME280;56085;48.910;9.478;2023-11-21T03:20:59;97555.03;;;13.56;55.69
36284;BME280;56085;48.910;9.478;2023-11-21T03:23:24;97549.84;;;13.72;55.18
36284;BME280;56085;48.910;9.478;2023-11-21T03:25:50;97552.63;;;13.61;55.41
36284;BME280;56085;48.910;9.478;2023-11-21T03:28:15;97555.84;;;13.53;55.63
36284;BME280;56085;48.910;9.478;2023-11-21T03:30:40;97555.44;;;13.54;55.69
36284;BME280;56085;48.910;9.478;2023-11-21T03:33:06;97547.88;;;13.73;55.00
36284;BME280;56085;48.910;9.478;2023-11-21T03:35:33;97555.41;;;13.65;55.41
36284;BME280;56085;48.910;9.478;2023-11-21T03:37:58;97555.03;;;13.41;55.97
36284;BME280;56085;48.910;9.478;2023-11-21T03:40:23;97553.06;;;13.27;55.92
36284;BME280;56085;48.910;9.478;2023-11-21T03:42:49;97555.03;;;13.52;55.64
36284;BME280;56085;48.910;9.478;2023-11-21T03:45:15;97551.47;;;13.26;55.93
36284;BME280;56085;48.910;9.478;2023-11-21T03:47:41;97544.34;;;13.36;55.98
36284;BME280;56085;48.910;9.478;2023-11-21T03:50:07;97550.66;;;13.30;56.02
36284;BME280;56085;48.910;9.478;2023-11-21T03:52:34;97561.38;;;13.53;55.76
36284;BME280;56085;48.910;9.478;2023-11-21T03:55:00;97566.94;;;13.53;55.75
36284;BME280;56085;48.910;9.478;2023-11-21T03:57:26;97565.34;;;13.34;56.10
36284;BME280;56085;48.910;9.478;2023-11-21T03:59:53;97561.38;;;13.31;56.65
36284;BME280;56085;48.910;9.478;2023-11-21T04:02:18;97565.34;;;13.12;57.16
36284;BME280;56085;48.910;9.478;2023-11-21T04:04:44;97567.31;;;13.30;57.27
36284;BME280;56085;48.910;9.478;2023-11-21T04:07:09;97565.34;;;13.37;56.94
36284;BME280;56085;48.910;9.478;2023-11-21T04:09:35;97565.75;;;13.54;56.29
36284;BME280;56085;48.910;9.478;2023-11-21T04:12:01;97571.28;;;13.65;55.80
36284;BME280;56085;48.910;9.478;2023-11-21T04:14:27;97560.53;;;13.77;55.39
36284;BME280;56085;48.910;9.478;2023-11-21T04:16:52;97568.44;;;13.90;55.09
36284;BME280;56085;48.910;9.478;2023-11-21T04:19:18;97557.75;;;13.92;54.95
36284;BME280;56085;48.910;9.478;2023-11-21T04:21:44;97557.34;;;13.86;55.28
36284;BME280;56085;48.910;9.478;2023-11-21T04:24:09;97561.69;;;13.91;55.32
36284;BME280;56085;48.910;9.478;2023-11-21T04:26:35;97570.03;;;13.94;55.31
36284;BME280;56085;48.910;9.478;2023-11-21T04:29:00;97568.84;;;13.88;55.40
36284;BME280;56085;48.910;9.478;2023-11-21T04:31:26;97571.25;;;13.86;55.76
36284;BME280;56085;48.910;9.478;2023-11-21T04:33:51;97570.03;;;13.94;55.59
36284;BME280;56085;48.910;9.478;2023-11-21T04:36:17;97570.41;;;14.00;55.50
36284;BME280;56085;48.910;9.478;2023-11-21T04:38:42;97574.00;;;14.01;55.38
36284;BME280;56085;48.910;9.478;2023-11-21T04:41:08;97574.00;;;14.01;55.55
36284;BME280;56085;48.910;9.478;2023-11-21T04:43:33;97568.44;;;13.93;55.44
36284;BME280;56085;48.910;9.478;2023-11-21T04:45:59;97576.34;;;14.06;55.11
36284;BME280;56085;48.910;9.478;2023-11-21T04:48:24;97574.38;;;14.06;54.77
36284;BME280;56085;48.910;9.478;2023-11-21T04:50:50;97577.56;;;14.01;54.87
36284;BME280;56085;48.910;9.478;2023-11-21T04:53:17;97575.94;;;14.07;54.58
36284;BME280;56085;48.910;9.478;2023-11-21T04:55:43;97573.56;;;14.06;54.45
36284;BME280;56085;48.910;9.478;2023-11-21T04:58:09;97573.94;;;14.15;54.37
36284;BME280;56085;48.910;9.478;2023-11-21T05:00:35;97582.34;;;13.83;54.90
36284;BME280;56085;48.910;9.478;2023-11-21T05:03:02;97578.38;;;13.84;54.94
36284;BME280;56085;48.910;9.478;2023-11-21T05:05:27;97589.13;;;13.74;55.20
36284;BME280;56085;48.910;9.478;2023-11-21T05:07:53;97592.72;;;13.64;55.38
36284;BME280;56085;48.910;9.478;2023-11-21T05:10:19;97588.34;;;13.63;55.34
36284;BME280;56085;48.910;9.478;2023-11-21T05:12:44;97589.94;;;13.60;55.48
36284;BME280;56085;48.910;9.478;2023-11-21T05:15:14;97586.75;;;13.73;55.59
36284;BME280;56085;48.910;9.478;2023-11-21T05:17:40;97587.97;;;13.47;56.10
36284;BME280;56085;48.910;9.478;2023-11-21T05:20:13;97597.50;;;13.38;56.75
36284;BME280;56085;48.910;9.478;2023-11-21T05:22:43;97600.25;;;13.64;55.73
36284;BME280;56085;48.910;9.478;2023-11-21T05:25:09;97601.41;;;13.12;56.69
36284;BME280;56085;48.910;9.478;2023-11-21T05:27:35;97611.38;;;13.35;56.58
36284;BME280;56085;48.910;9.478;2023-11-21T05:30:01;97601.84;;;13.36;56.25
36284;BME280;56085;48.910;9.478;2023-11-21T05:32:27;97605.81;;;13.46;56.09
36284;BME280;56085;48.910;9.478;2023-11-21T05:34:53;97609.78;;;13.59;55.83
36284;BME280;56085;48.910;9.478;2023-11-21T05:37:18;97614.53;;;13.69;55.38
36284;BME280;56085;48.910;9.478;2023-11-21T05:39:43;97612.91;;;13.75;55.20
36284;BME280;56085;48.910;9.478;2023-11-21T05:42:09;97618.13;;;13.63;55.73
36284;BME280;56085;48.910;9.478;2023-11-21T05:44:36;97618.88;;;13.77;55.57
36284;BME280;56085;48.910;9.478;2023-11-21T05:47:02;97619.31;;;13.61;55.63
36284;BME280;56085;48.910;9.478;2023-11-21T05:49:28;97623.25;;;13.75;55.12
36284;BME280;56085;48.910;9.478;2023-11-21T05:51:54;97628.78;;;13.93;54.93
36284;BME280;56085;48.910;9.478;2023-11-21T05:54:20;97622.03;;;13.98;55.02
36284;BME280;56085;48.910;9.478;2023-11-21T05:56:45;97622.03;;;14.05;54.96
36284;BME280;56085;48.910;9.478;2023-11-21T05:59:12;97621.59;;;14.13;54.90
36284;BME280;56085;48.910;9.478;2023-11-21T06:01:37;97623.56;;;14.13;54.61
36284;BME280;56085;48.910;9.478;2023-11-21T06:04:04;97629.16;;;14.09;54.92
36284;BME280;56085;48.910;9.478;2023-11-21T06:06:30;97633.13;;;14.05;55.06
36284;BME280;56085;48.910;9.478;2023-11-21T06:08:56;97635.91;;;14.12;55.07
36284;BME280;56085;48.910;9.478;2023-11-21T06:11:22;97639.03;;;14.18;54.85
36284;BME280;56085;48.910;9.478;2023-11-21T06:13:47;97639.03;;;14.25;54.87
36284;BME280;56085;48.910;9.478;2023-11-21T06:16:13;97644.19;;;14.30;54.63
36284;BME280;56085;48.910;9.478;2023-11-21T06:18:41;97646.19;;;14.26;54.89
36284;BME280;56085;48.910;9.478;2023-11-21T06:21:09;97648.94;;;14.33;54.90
36284;BME280;56085;48.910;9.478;2023-11-21T06:23:35;97652.13;;;14.28;54.57
36284;BME280;56085;48.910;9.478;2023-11-21T06:26:00;97654.53;;;14.22;54.82
36284;BME280;56085;48.910;9.478;2023-11-21T06:28:26;97662.06;;;14.29;54.75
36284;BME280;56085;48.910;9.478;2023-11-21T06:30:51;97652.53;;;14.26;54.79
36284;BME280;56085;48.910;9.478;2023-11-21T06:33:18;97660.47;;;14.31;54.73
36284;BME280;56085;48.910;9.478;2023-11-21T06:35:43;97658.09;;;14.26;54.91
36284;BME280;56085;48.910;9.478;2023-11-21T06:38:10;97666.44;;;14.26;55.54
36284;BME280;56085;48.910;9.478;2023-11-21T06:40:35;97663.25;;;14.24;55.14
36284;BME280;56085;48.910;9.478;2023-11-21T06:43:00;97669.19;;;14.26;55.09
36284;BME280;56085;48.910;9.478;2023-11-21T06:45:26;97667.63;;;14.25;54.98
36284;BME280;56085;48.910;9.478;2023-11-21T06:47:51;97672.78;;;14.34;54.87
36284;BME280;56085;48.910;9.478;2023-11-21T06:50:16;97677.91;;;14.43;54.66
36284;BME280;56085;48.910;9.478;2023-11-21T06:52:42;97672.78;;;14.34;54.79
36284;BME280;56085;48.910;9.478;2023-11-21T06:55:08;97677.53;;;14.26;54.79
36284;BME280;56085;48.910;9.478;2023-11-21T06:57:33;97675.56;;;14.30;55.09
36284;BME280;56085;48.910;9.478;2023-11-21T06:59:59;97678.75;;;14.32;55.00
36284;BME280;56085;48.910;9.478;2023-11-21T07:02:24;97680.28;;;14.41;54.72
36284;BME280;56085;48.910;9.478;2023-11-21T07:04:50;97691.03;;;14.39;55.00
36284;BME280;56085;48.910;9.478;2023-11-21T07:07:15;97693.00;;;14.38;55.09
36284;BME280;56085;48.910;9.478;2023-11-21T07:09:40;97703.34;;;14.41;54.87
36284;BME280;56085;48.910;9.478;2023-11-21T07:12:06;97703.31;;;14.52;54.64
36284;BME280;56085;48.910;9.478;2023-11-21T07:14:35;97696.16;;;14.55;54.63
36284;BME280;56085;48.910;9.478;2023-11-21T07:17:02;97701.72;;;14.51;54.76
36284;BME280;56085;48.910;9.478;2023-11-21T07:19:27;97702.88;;;14.64;54.35
36284;BME280;56085;48.910;9.478;2023-11-21T07:21:53;97701.31;;;14.63;54.80
36284;BME280;56085;48.910;9.478;2023-11-21T07:24:18;97696.13;;;14.73;54.12
36284;BME280;56085;48.910;9.478;2023-11-21T07:26:44;97708.84;;;14.70;54.46
36284;BME280;56085;48.910;9.478;2023-11-21T07:29:09;97712.00;;;14.79;54.14
36284;BME280;56085;48.910;9.478;2023-11-21T07:31:34;97712.00;;;14.79;54.50
36284;BME280;56085;48.910;9.478;2023-11-21T07:34:00;97717.09;;;14.95;53.96
36284;BME280;56085;48.910;9.478;2023-11-21T07:36:26;97716.31;;;14.88;54.06
36284;BME280;56085;48.910;9.478;2023-11-21T07:38:52;97711.19;;;14.79;53.99
36284;BME280;56085;48.910;9.478;2023-11-21T07:41:18;97715.91;;;14.89;53.40
36284;BME280;56085;48.910;9.478;2023-11-21T07:43:44;97716.34;;;14.84;53.88
36284;BME280;56085;48.910;9.478;2023-11-21T07:46:10;97721.44;;;14.96;53.82
36284;BME280;56085;48.910;9.478;2023-11-21T07:48:38;97727.03;;;14.96;53.72
36284;BME280;56085;48.910;9.478;2023-11-21T07:51:04;97734.56;;;14.99;53.79
36284;BME280;56085;48.910;9.478;2023-11-21T07:53:29;97738.94;;;15.04;53.59
36284;BME280;56085;48.910;9.478;2023-11-21T07:56:00;97745.66;;;15.07;53.79
36284;BME280;56085;48.910;9.478;2023-11-21T07:58:27;97744.09;;;15.02;53.89
36284;BME280;56085;48.910;9.478;2023-11-21T08:00:52;97742.47;;;15.12;53.60
36284;BME280;56085;48.910;9.478;2023-11-21T08:03:18;97744.88;;;15.06;53.74
36284;BME280;56085;48.910;9.478;2023-11-21T08:05:43;97737.72;;;15.09;53.55
36284;BME280;56085;48.910;9.478;2023-11-21T08:08:08;97743.22;;;15.23;53.16
36284;BME280;56085;48.910;9.478;2023-11-21T08:10:34;97743.22;;;15.19;53.17
36284;BME280;56085;48.910;9.478;2023-11-21T08:13:01;97749.19;;;15.18;52.72
36284;BME280;56085;48.910;9.478;2023-11-21T08:15:26;97752.38;;;15.16;52.59
36284;BME280;56085;48.910;9.478;2023-11-21T08:17:51;97753.16;;;15.17;52.77
36284;BME280;56085;48.910;9.478;2023-11-21T08:20:17;97756.34;;;15.19;52.81
36284;BME280;56085;48.910;9.478;2023-11-21T08:22:44;97759.53;;;15.21;52.87
36284;BME280;56085;48.910;9.478;2023-11-21T08:25:09;97754.78;;;15.14;52.79
36284;BME280;56085;48.910;9.478;2023-11-21T08:27:34;97763.88;;;15.26;53.11
36284;BME280;56085;48.910;9.478;2023-11-21T08:30:01;97758.66;;;15.31;52.80
36284;BME280;56085;48.910;9.478;2023-11-21T08:32:26;97761.47;;;15.31;52.58
36284;BME280;56085;48.910;9.478;2023-11-21T08:34:52;97754.69;;;15.32;52.88
36284;BME280;56085;48.910;9.478;2023-11-21T08:37:17;97761.53;;;15.21;53.06
36284;BME280;56085;48.910;9.478;2023-11-21T08:39:47;97757.84;;;15.34;52.70
36284;BME280;56085;48.910;9.478;2023-11-21T08:42:14;97764.25;;;15.31;52.96
36284;BME280;56085;48.910;9.478;2023-11-21T08:44:40;97768.59;;;15.40;52.71
36284;BME280;56085;48.910;9.478;2023-11-21T08:47:06;97763.84;;;15.36;52.42
36284;BME280;56085;48.910;9.478;2023-11-21T08:49:31;97776.56;;;15.38;52.74
36284;BME280;56085;48.910;9.478;2023-11-21T08:51:57;97769.06;;;15.24;53.00
36284;BME280;56085;48.910;9.478;2023-11-21T08:54:25;97779.28;;;15.45;52.55
36284;BME280;56085;48.910;9.478;2023-11-21T08:56:52;97778.19;;;15.28;52.68
36284;BME280;56085;48.910;9.478;2023-11-21T08:59:17;97770.66;;;15.21;52.65
36284;BME280;56085;48.910;9.478;2023-11-21T09:01:42;97770.66;;;15.25;52.72
36284;BME280;56085;48.910;9.478;2023-11-21T09:04:08;97774.63;;;15.24;52.52
36284;BME280;56085;48.910;9.478;2023-11-21T09:06:33;97783.25;;;15.47;52.12
36284;BME280;56085;48.910;9.478;2023-11-21T09:08:58;97787.31;;;15.35;52.02
36284;BME280;56085;48.910;9.478;2023-11-21T09:11:24;97781.53;;;15.68;51.38
36284;BME280;56085;48.910;9.478;2023-11-21T09:13:50;97785.06;;;15.83;51.12
36284;BME280;56085;48.910;9.478;2023-11-21T09:16:17;97782.56;;;15.99;50.77
36284;BME280;56085;48.910;9.478;2023-11-21T09:18:42;97794.38;;;16.18;50.32
36284;BME280;56085;48.910;9.478;2023-11-21T09:21:08;97791.53;;;16.21;50.35
36284;BME280;56085;48.910;9.478;2023-11-21T09:23:34;97794.31;;;16.21;50.33
36284;BME280;56085;48.910;9.478;2023-11-21T09:25:59;97791.91;;;16.23;50.07
36284;BME280;56085;48.910;9.478;2023-11-21T09:28:26;97793.97;;;16.16;50.30
36284;BME280;56085;48.910;9.478;2023-11-21T09:30:53;97795.88;;;16.26;50.12
36284;BME280;56085;48.910;9.478;2023-11-21T09:33:18;97793.84;;;16.30;50.13
36284;BME280;56085;48.910;9.478;2023-11-21T09:35:43;97795.22;;;16.56;49.62
36284;BME280;56085;48.910;9.478;2023-11-21T09:38:09;97792.25;;;16.29;50.16
36284;BME280;56085;48.910;9.478;2023-11-21T09:40:36;97791.78;;;16.42;49.73
36284;BME280;56085;48.910;9.478;2023-11-21T09:43:06;97793.03;;;16.33;49.57
36284;BME280;56085;48.910;9.478;2023-11-21T09:45:35;97801.16;;;16.17;49.88
36284;BME280;56085;48.910;9.478;2023-11-21T09:48:01;97806.19;;;16.33;49.63
36284;BME280;56085;48.910;9.478;2023-11-21T09:50:27;97809.78;;;16.33;49.29
36284;BME280;56085;48.910;9.478;2023-11-21T09:53:07;97805.31;;;16.39;49.04
36284;BME280;56085;48.910;9.478;2023-11-21T09:55:36;97802.63;;;16.29;49.60
36284;BME280;56085;48.910;9.478;2023-11-21T09:58:04;97821.03;;;16.19;49.78
36284;BME280;56085;48.910;9.478;2023-11-21T10:00:33;97809.94;;;16.12;50.13
36284;BME280;56085;48.910;9.478;2023-11-21T10:02:58;97814.50;;;15.87;50.16
36284;BME280;56085;48.910;9.478;2023-11-21T10:05:24;97811.72;;;15.84;50.43
36284;BME280;56085;48.910;9.478;2023-11-21T10:07:50;97809.78;;;15.77;50.45
36284;BME280;56085;48.910;9.478;2023-11-21T10:10:18;97818.03;;;15.95;50.46
36284;BME280;56085;48.910;9.478;2023-11-21T10:12:49;97816.38;;;16.05;50.18
36284;BME280;56085;48.910;9.478;2023-11-21T10:15:15;97827.13;;;16.07;50.13
36284;BME280;56085;48.910;9.478;2023-11-21T10:17:43;97823.97;;;16.01;50.21
36284;BME280;56085;48.910;9.478;2023-11-21T10:20:13;97823.09;;;16.08;50.15
36284;BME280;56085;48.910;9.478;2023-11-21T10:22:41;97823.56;;;15.99;50.37
36284;BME280;56085;48.910;9.478;2023-11-21T10:25:08;97828.81;;;15.90;50.30
36284;BME280;56085;48.910;9.478;2023-11-21T10:27:34;97826.91;;;15.79;50.55
36284;BME280;56085;48.910;9.478;2023-11-21T10:30:03;97825.72;;;15.69;50.71
36284;BME280;56085;48.910;9.478;2023-11-21T10:32:31;97828.53;;;15.66;50.86
36284;BME280;56085;48.910;9.478;2023-11-21T10:34:59;97831.69;;;15.79;50.85
36284;BME280;56085;48.910;9.478;2023-11-21T10:37:25;97826.16;;;15.61;51.06
36284;BME280;56085;48.910;9.478;2023-11-21T10:39:57;97828.00;;;15.93;51.29
36284;BME280;56085;48.910;9.478;2023-11-21T10:42:22;97831.59;;;15.90;51.00
36284;BME280;56085;48.910;9.478;2023-11-21T10:44:49;97828.47;;;15.77;51.09
36284;BME280;56085;48.910;9.478;2023-11-21T10:47:15;97827.25;;;15.85;51.30
36284;BME280;56085;48.910;9.478;2023-11-21T10:49:41;97828.84;;;15.86;51.08
36284;BME280;56085;48.910;9.478;2023-11-21T10:52:06;97832.47;;;15.76;51.24
36284;BME280;56085;48.910;9.478;2023-11-21T10:54:31;97830.09;;;15.81;51.21
36284;BME280;56085;48.910;9.478;2023-11-21T10:56:58;97838.03;;;15.83;51.34
36284;BME280;56085;48.910;9.478;2023-11-21T10:59:31;97829.59;;;15.94;51.07
36284;BME280;56085;48.910;9.478;2023-11-21T11:02:01;97826.34;;;16.02;51.19
36284;BME280;56085;48.910;9.478;2023-11-21T11:04:31;97832.06;;;15.81;50.95
36284;BME280;56085;48.910;9.478;2023-11-21T11:06:57;97826.44;;;15.88;50.71
36284;BME280;56085;48.910;9.478;2023-11-21T11:09:27;97832.13;;;16.26;50.06
36284;BME280;56085;48.910;9.478;2023-11-21T11:11:55;97825.66;;;16.40;49.43
36284;BME280;56085;48.910;9.478;2023-11-21T11:14:20;97826.97;;;16.70;49.01
36284;BME280;56085;48.910;9.478;2023-11-21T11:16:50;97827.31;;;17.17;47.98
36284;BME280;56085;48.910;9.478;2023-11-21T11:19:16;97830.03;;;17.83;46.87
36284;BME280;56085;48.910;9.478;2023-11-21T11:21:51;97822.25;;;17.39;47.40
36284;BME280;56085;48.910;9.478;2023-11-21T11:24:44;97823.94;;;17.91;46.56
36284;BME280;56085;48.910;9.478;2023-11-21T11:32:58;97820.63;;;18.51;45.47
36284;BME280;56085;48.910;9.478;2023-11-21T11:35:38;97817.69;;;18.58;45.04
36284;BME280;56085;48.910;9.478;2023-11-21T11:38:08;97825.25;;;18.10;46.00
36284;BME280;56085;48.910;9.478;2023-11-21T11:40:46;97831.38;;;18.29;45.88
36284;BME280;56085;48.910;9.478;2023-11-21T11:43:12;97825.69;;;17.82;46.56
36284;BME280;56085;48.910;9.478;2023-11-21T11:45:38;97830.75;;;17.59;46.75
36284;BME280;56085;48.910;9.478;2023-11-21T11:48:07;97832.91;;;17.79;46.53
36284;BME280;56085;48.910;9.478;2023-11-21T11:50:33;97827.97;;;17.59;46.47
36284;BME280;56085;48.910;9.478;2023-11-21T11:53:13;97825.69;;;17.51;46.77
36284;BME280;56085;48.910;9.478;2023-11-21T11:55:39;97822.69;;;17.34;47.50
36284;BME280;56085;48.910;9.478;2023-11-21T11:58:06;97834.53;;;17.11;47.47
36284;BME280;56085;48.910;9.478;2023-11-21T12:03:02;97831.25;;;16.82;48.70
36284;BME280;56085;48.910;9.478;2023-11-21T12:05:29;97832.94;;;16.72;48.87
36284;BME280;56085;48.910;9.478;2023-11-21T12:08:01;97831.63;;;16.84;48.67
36284;BME280;56085;48.910;9.478;2023-11-21T12:10:29;97836.03;;;16.81;49.05
36284;BME280;56085;48.910;9.478;2023-11-21T12:12:57;97842.78;;;16.87;49.00
36284;BME280;56085;48.910;9.478;2023-11-21T12:15:24;97847.28;;;16.70;49.77
36284;BME280;56085;48.910;9.478;2023-11-21T12:17:51;97839.38;;;16.65;49.81
36284;BME280;56085;48.910;9.478;2023-11-21T12:20:19;97840.78;;;16.88;49.55
36284;BME280;56085;48.910;9.478;2023-11-21T12:22:49;97851.63;;;17.20;48.98
36284;BME280;56085;48.910;9.478;2023-11-21T12:25:26;97852.94;;;17.08;48.78
36284;BME280;56085;48.910;9.478;2023-11-21T12:27:55;97845.56;;;16.91;48.77
36284;BME280;56085;48.910;9.478;2023-11-21T12:30:25;97852.97;;;17.05;48.58
36284;BME280;56085;48.910;9.478;2023-11-21T12:32:54;97845.72;;;17.11;48.48
36284;BME280;56085;48.910;9.478;2023-11-21T12:35:41;97850.88;;;17.47;47.48
36284;BME280;56085;48.910;9.478;2023-11-21T12:38:08;97843.13;;;19.92;43.55
36284;BME280;56085;48.910;9.478;2023-11-21T12:40:36;97841.94;;;20.91;41.40
36284;BME280;56085;48.910;9.478;2023-11-21T12:43:01;97847.56;;;20.26;41.55
36284;BME280;56085;48.910;9.478;2023-11-21T12:45:29;97843.69;;;20.69;41.11
36284;BME280;56085;48.910;9.478;2023-11-21T12:47:58;97851.28;;;19.66;42.45
36284;BME280;56085;48.910;9.478;2023-11-21T12:50:26;97852.06;;;19.06;43.47
36284;BME280;56085;48.910;9.478;2023-11-21T12:53:01;97860.53;;;18.55;44.66
36284;BME280;56085;48.910;9.478;2023-11-21T12:55:31;97863.56;;;18.41;45.44
36284;BME280;56085;48.910;9.478;2023-11-21T12:57:59;97863.81;;;17.99;45.83
36284;BME280;56085;48.910;9.478;2023-11-21T13:00:42;97864.59;;;17.69;46.64
36284;BME280;56085;48.910;9.478;2023-11-21T13:03:11;97872.91;;;17.41;47.59
36284;BME280;56085;48.910;9.478;2023-11-21T13:05:39;97864.94;;;17.05;48.50